Flemalle-Haute, Belgium
Current Conditions -  °F | °C
As of 5:20 PM on Wednesday 26 Nov 2014 (Local Time) from EBLG Reporting Station
Broken Clouds Broken Clouds  
Wind Chill: 43°   Ceiling: 1300
Heat Index: 46°   Visibility: 4mi
Dew Point: 43°   Wind: 7mph
Humidity: 87%   Direction: 160°SSE
Pressure: 29.85"   Gusts: NA
Location:  50.6°N, 5.44°E
Report Text: EBLG 261620Z 16006KT 6000 BKN013 08/06 Q1011 TEMPO 3000 DZ BKN006
Loading
Personal Weather Stations






























Interactive Weather Map New forecast layout! Learn more

10-Day Weather Forecast

Advertisements
Track Severe Weather on mobile